sensor_id;sensor_type;location;lat;lon;timestamp;temperature;humidity
19799;DHT22;10059;59.850;10.454;2023-04-03T00:01:40;-2.00;99.90
19799;DHT22;10059;59.850;10.454;2023-04-03T00:04:07;-2.20;99.90
19799;DHT22;10059;59.850;10.454;2023-04-03T00:06:35;-2.40;99.90
19799;DHT22;10059;59.850;10.454;2023-04-03T00:09:02;-2.50;99.90
19799;DHT22;10059;59.850;10.454;2023-04-03T00:11:29;-2.60;99.90
19799;DHT22;10059;59.850;10.454;2023-04-03T00:13:56;-2.70;99.90
19799;DHT22;10059;59.850;10.454;2023-04-03T00:16:23;-2.70;99.90
19799;DHT22;10059;59.850;10.454;2023-04-03T00:18:49;-2.60;99.90
19799;DHT22;10059;59.850;10.454;2023-04-03T00:21:16;-2.50;99.90
19799;DHT22;10059;59.850;10.454;2023-04-03T00:23:44;-2.40;99.90
19799;DHT22;10059;59.850;10.454;2023-04-03T00:26:11;-2.40;99.90
19799;DHT22;10059;59.850;10.454;2023-04-03T00:28:38;-2.40;99.90
19799;DHT22;10059;59.850;10.454;2023-04-03T00:31:05;-2.40;99.90
19799;DHT22;10059;59.850;10.454;2023-04-03T00:33:32;-2.50;99.90
19799;DHT22;10059;59.850;10.454;2023-04-03T00:35:59;-2.40;99.90
19799;DHT22;10059;59.850;10.454;2023-04-03T00:38:25;-2.50;99.90
19799;DHT22;10059;59.850;10.454;2023-04-03T00:40:54;-2.40;99.90
19799;DHT22;10059;59.850;10.454;2023-04-03T00:43:22;-2.40;99.90
19799;DHT22;10059;59.850;10.454;2023-04-03T00:45:51;-2.40;99.90
19799;DHT22;10059;59.850;10.454;2023-04-03T00:48:20;-2.20;99.90
19799;DHT22;10059;59.850;10.454;2023-04-03T00:50:48;-2.30;99.90
19799;DHT22;10059;59.850;10.454;2023-04-03T00:53:18;-2.30;99.90
19799;DHT22;10059;59.850;10.454;2023-04-03T00:55:47;-2.40;99.90
19799;DHT22;10059;59.850;10.454;2023-04-03T00:58:18;-2.50;99.90
19799;DHT22;10059;59.850;10.454;2023-04-03T01:00:49;-2.50;99.90
19799;DHT22;10059;59.850;10.454;2023-04-03T01:03:21;-2.40;99.90
19799;DHT22;10059;59.850;10.454;2023-04-03T01:05:48;-2.40;99.90
19799;DHT22;10059;59.850;10.454;2023-04-03T01:08:15;-2.50;99.90
19799;DHT22;10059;59.850;10.454;2023-04-03T01:10:43;-2.50;99.90
19799;DHT22;10059;59.850;10.454;2023-04-03T01:13:24;-2.50;99.90
19799;DHT22;10059;59.850;10.454;2023-04-03T01:15:51;-2.50;99.90
19799;DHT22;10059;59.850;10.454;2023-04-03T01:18:19;-2.50;99.90
19799;DHT22;10059;59.850;10.454;2023-04-03T01:21:14;-2.50;99.90
19799;DHT22;10059;59.850;10.454;2023-04-03T01:26:41;-2.50;99.90
19799;DHT22;10059;59.850;10.454;2023-04-03T01:29:09;-2.50;99.90
19799;DHT22;10059;59.850;10.454;2023-04-03T01:31:52;-2.50;99.90
19799;DHT22;10059;59.850;10.454;2023-04-03T01:34:20;-2.60;99.90
19799;DHT22;10059;59.850;10.454;2023-04-03T01:36:47;-2.60;99.90
19799;DHT22;10059;59.850;10.454;2023-04-03T01:39:14;-2.70;99.90
19799;DHT22;10059;59.850;10.454;2023-04-03T01:41:41;-2.80;99.90
19799;DHT22;10059;59.850;10.454;2023-04-03T01:44:08;-2.60;99.90
19799;DHT22;10059;59.850;10.454;2023-04-03T01:46:34;-2.70;99.90
19799;DHT22;10059;59.850;10.454;2023-04-03T01:49:04;-2.80;99.90
19799;DHT22;10059;59.850;10.454;2023-04-03T01:51:31;-2.70;99.90
19799;DHT22;10059;59.850;10.454;2023-04-03T01:53:58;-2.70;99.90
19799;DHT22;10059;59.850;10.454;2023-04-03T01:56:25;-2.80;99.90
19799;DHT22;10059;59.850;10.454;2023-04-03T01:58:52;-2.80;99.90
19799;DHT22;10059;59.850;10.454;2023-04-03T02:01:19;-2.60;99.90
19799;DHT22;10059;59.850;10.454;2023-04-03T02:03:46;-2.60;99.90
19799;DHT22;10059;59.850;10.454;2023-04-03T02:06:14;-2.60;99.90
19799;DHT22;10059;59.850;10.454;2023-04-03T02:08:41;-2.60;99.90
19799;DHT22;10059;59.850;10.454;2023-04-03T02:11:08;-2.60;99.90
19799;DHT22;10059;59.850;10.454;2023-04-03T02:13:35;-2.60;99.90
19799;DHT22;10059;59.850;10.454;2023-04-03T02:16:07;-2.70;99.90
19799;DHT22;10059;59.850;10.454;2023-04-03T02:18:34;-2.70;99.90
19799;DHT22;10059;59.850;10.454;2023-04-03T02:21:00;-2.80;99.90
19799;DHT22;10059;59.850;10.454;2023-04-03T02:23:29;-2.80;99.90
19799;DHT22;10059;59.850;10.454;2023-04-03T02:26:03;-2.80;99.90
19799;DHT22;10059;59.850;10.454;2023-04-03T02:28:30;-2.80;99.90
19799;DHT22;10059;59.850;10.454;2023-04-03T02:30:57;-2.60;99.90
19799;DHT22;10059;59.850;10.454;2023-04-03T02:33:24;-2.80;99.90
19799;DHT22;10059;59.850;10.454;2023-04-03T02:35:53;-3.00;99.90
19799;DHT22;10059;59.850;10.454;2023-04-03T02:38:20;-3.00;99.90
19799;DHT22;10059;59.850;10.454;2023-04-03T02:40:48;-2.90;99.90
19799;DHT22;10059;59.850;10.454;2023-04-03T02:43:15;-3.00;99.90
19799;DHT22;10059;59.850;10.454;2023-04-03T02:45:42;-3.10;99.90
19799;DHT22;10059;59.850;10.454;2023-04-03T02:48:09;-3.20;99.90
19799;DHT22;10059;59.850;10.454;2023-04-03T02:50:36;-3.20;99.90
19799;DHT22;10059;59.850;10.454;2023-04-03T02:53:03;-3.10;99.90
19799;DHT22;10059;59.850;10.454;2023-04-03T02:55:30;-3.00;99.90
19799;DHT22;10059;59.850;10.454;2023-04-03T02:57:58;-3.10;99.90
19799;DHT22;10059;59.850;10.454;2023-04-03T03:00:25;-3.10;99.90
19799;DHT22;10059;59.850;10.454;2023-04-03T03:02:52;-3.10;99.90
19799;DHT22;10059;59.850;10.454;2023-04-03T03:05:19;-3.00;99.90
19799;DHT22;10059;59.850;10.454;2023-04-03T03:07:45;-3.00;99.90
19799;DHT22;10059;59.850;10.454;2023-04-03T03:10:13;-3.10;99.90
19799;DHT22;10059;59.850;10.454;2023-04-03T03:12:40;-3.20;99.90
19799;DHT22;10059;59.850;10.454;2023-04-03T03:15:09;-3.30;99.90
19799;DHT22;10059;59.850;10.454;2023-04-03T03:17:36;-3.40;99.90
19799;DHT22;10059;59.850;10.454;2023-04-03T03:20:03;-3.50;99.90
19799;DHT22;10059;59.850;10.454;2023-04-03T03:22:30;-3.50;99.90
19799;DHT22;10059;59.850;10.454;2023-04-03T03:24:57;-3.50;99.90
19799;DHT22;10059;59.850;10.454;2023-04-03T03:27:24;-3.50;99.90
19799;DHT22;10059;59.850;10.454;2023-04-03T03:29:51;-3.50;99.90
19799;DHT22;10059;59.850;10.454;2023-04-03T03:32:19;-3.40;99.90
19799;DHT22;10059;59.850;10.454;2023-04-03T03:34:46;-3.30;99.90
19799;DHT22;10059;59.850;10.454;2023-04-03T03:37:13;-3.30;99.90
19799;DHT22;10059;59.850;10.454;2023-04-03T03:39:40;-3.30;99.90
19799;DHT22;10059;59.850;10.454;2023-04-03T03:42:07;-3.40;99.90
19799;DHT22;10059;59.850;10.454;2023-04-03T03:44:34;-3.40;99.90
19799;DHT22;10059;59.850;10.454;2023-04-03T03:47:00;-3.40;99.90
19799;DHT22;10059;59.850;10.454;2023-04-03T03:49:29;-3.50;99.90
19799;DHT22;10059;59.850;10.454;2023-04-03T03:51:56;-3.60;99.90
19799;DHT22;10059;59.850;10.454;2023-04-03T03:54:23;-3.50;99.90
19799;DHT22;10059;59.850;10.454;2023-04-03T03:56:50;-3.50;99.90
19799;DHT22;10059;59.850;10.454;2023-04-03T03:59:17;-3.40;99.90
19799;DHT22;10059;59.850;10.454;2023-04-03T04:01:44;-3.40;99.90
19799;DHT22;10059;59.850;10.454;2023-04-03T04:04:11;-3.40;99.90
19799;DHT22;10059;59.850;10.454;2023-04-03T04:06:39;-3.40;99.90
19799;DHT22;10059;59.850;10.454;2023-04-03T04:09:06;-3.30;99.90
19799;DHT22;10059;59.850;10.454;2023-04-03T04:11:32;-3.20;99.90
19799;DHT22;10059;59.850;10.454;2023-04-03T04:14:00;-3.20;99.90
19799;DHT22;10059;59.850;10.454;2023-04-03T04:16:26;-3.20;99.90
19799;DHT22;10059;59.850;10.454;2023-04-03T04:18:53;-3.10;99.90
19799;DHT22;10059;59.850;10.454;2023-04-03T04:21:20;-3.00;99.90
19799;DHT22;10059;59.850;10.454;2023-04-03T04:23:48;-3.00;99.90
19799;DHT22;10059;59.850;10.454;2023-04-03T04:26:15;-3.20;99.90
19799;DHT22;10059;59.850;10.454;2023-04-03T04:28:42;-3.20;99.90
19799;DHT22;10059;59.850;10.454;2023-04-03T04:31:09;-3.20;99.90
19799;DHT22;10059;59.850;10.454;2023-04-03T04:33:35;-3.10;99.90
19799;DHT22;10059;59.850;10.454;2023-04-03T04:36:03;-3.20;99.90
19799;DHT22;10059;59.850;10.454;2023-04-03T04:38:29;-3.30;99.90
19799;DHT22;10059;59.850;10.454;2023-04-03T04:40:58;-3.40;99.90
19799;DHT22;10059;59.850;10.454;2023-04-03T04:43:24;-3.40;99.90
19799;DHT22;10059;59.850;10.454;2023-04-03T04:46:00;-3.40;99.90
19799;DHT22;10059;59.850;10.454;2023-04-03T04:48:28;-3.30;99.90
19799;DHT22;10059;59.850;10.454;2023-04-03T04:50:54;-3.20;99.90
19799;DHT22;10059;59.850;10.454;2023-04-03T04:53:21;-3.10;99.90
19799;DHT22;10059;59.850;10.454;2023-04-03T04:55:48;-3.20;99.90
19799;DHT22;10059;59.850;10.454;2023-04-03T04:58:16;-3.20;99.90
19799;DHT22;10059;59.850;10.454;2023-04-03T05:00:44;-3.20;99.90
19799;DHT22;10059;59.850;10.454;2023-04-03T05:03:11;-3.40;99.90
19799;DHT22;10059;59.850;10.454;2023-04-03T05:05:38;-3.50;99.90
19799;DHT22;10059;59.850;10.454;2023-04-03T05:08:05;-3.50;99.90
19799;DHT22;10059;59.850;10.454;2023-04-03T05:10:34;-3.70;99.90
19799;DHT22;10059;59.850;10.454;2023-04-03T05:13:01;-3.60;99.90
19799;DHT22;10059;59.850;10.454;2023-04-03T05:15:29;-3.60;99.90
19799;DHT22;10059;59.850;10.454;2023-04-03T05:17:56;-3.70;99.90
19799;DHT22;10059;59.850;10.454;2023-04-03T05:20:23;-3.60;99.90
19799;DHT22;10059;59.850;10.454;2023-04-03T05:22:50;-3.50;99.90
19799;DHT22;10059;59.850;10.454;2023-04-03T05:25:17;-3.40;99.90
19799;DHT22;10059;59.850;10.454;2023-04-03T05:27:44;-3.40;99.90
19799;DHT22;10059;59.850;10.454;2023-04-03T05:30:11;-3.40;99.90
19799;DHT22;10059;59.850;10.454;2023-04-03T05:32:40;-3.20;99.90
19799;DHT22;10059;59.850;10.454;2023-04-03T05:35:08;-3.10;99.90
19799;DHT22;10059;59.850;10.454;2023-04-03T05:37:35;-3.00;99.90
19799;DHT22;10059;59.850;10.454;2023-04-03T05:40:03;-3.10;99.90
19799;DHT22;10059;59.850;10.454;2023-04-03T05:42:30;-3.00;99.90
19799;DHT22;10059;59.850;10.454;2023-04-03T05:44:57;-2.90;99.90
19799;DHT22;10059;59.850;10.454;2023-04-03T05:47:24;-2.90;99.90
19799;DHT22;10059;59.850;10.454;2023-04-03T05:49:52;-2.70;99.90
19799;DHT22;10059;59.850;10.454;2023-04-03T05:52:22;-2.80;99.90
19799;DHT22;10059;59.850;10.454;2023-04-03T05:54:51;-2.70;99.90
19799;DHT22;10059;59.850;10.454;2023-04-03T05:57:19;-2.40;99.90
19799;DHT22;10059;59.850;10.454;2023-04-03T05:59:46;-2.10;99.90
19799;DHT22;10059;59.850;10.454;2023-04-03T06:02:15;-2.20;99.90
19799;DHT22;10059;59.850;10.454;2023-04-03T06:04:42;-2.00;99.90
19799;DHT22;10059;59.850;10.454;2023-04-03T06:07:13;-1.70;99.90
19799;DHT22;10059;59.850;10.454;2023-04-03T06:09:41;-1.50;99.90
19799;DHT22;10059;59.850;10.454;2023-04-03T06:12:08;-1.30;99.90
19799;DHT22;10059;59.850;10.454;2023-04-03T06:14:35;-1.20;99.90
19799;DHT22;10059;59.850;10.454;2023-04-03T06:17:02;-1.40;99.90
19799;DHT22;10059;59.850;10.454;2023-04-03T06:19:30;-1.30;99.90
19799;DHT22;10059;59.850;10.454;2023-04-03T06:21:57;-1.30;99.90
19799;DHT22;10059;59.850;10.454;2023-04-03T06:24:25;-1.10;99.90
19799;DHT22;10059;59.850;10.454;2023-04-03T06:26:52;-1.00;99.90
19799;DHT22;10059;59.850;10.454;2023-04-03T06:29:20;-0.70;99.90
19799;DHT22;10059;59.850;10.454;2023-04-03T06:31:47;-0.50;99.90
19799;DHT22;10059;59.850;10.454;2023-04-03T06:34:14;-0.30;99.90
19799;DHT22;10059;59.850;10.454;2023-04-03T06:36:42;-0.20;99.90
19799;DHT22;10059;59.850;10.454;2023-04-03T06:39:13;-0.10;99.90
19799;DHT22;10059;59.850;10.454;2023-04-03T06:41:42;0.00;99.90
19799;DHT22;10059;59.850;10.454;2023-04-03T06:44:09;0.10;99.90
19799;DHT22;10059;59.850;10.454;2023-04-03T06:46:37;0.30;99.90
19799;DHT22;10059;59.850;10.454;2023-04-03T06:49:04;0.40;99.90
19799;DHT22;10059;59.850;10.454;2023-04-03T06:51:33;0.50;99.90
19799;DHT22;10059;59.850;10.454;2023-04-03T06:54:01;0.70;99.90
19799;DHT22;10059;59.850;10.454;2023-04-03T06:56:29;0.70;99.90
19799;DHT22;10059;59.850;10.454;2023-04-03T06:58:57;0.80;99.90
19799;DHT22;10059;59.850;10.454;2023-04-03T07:01:25;0.90;99.90
19799;DHT22;10059;59.850;10.454;2023-04-03T07:03:53;1.00;99.90
19799;DHT22;10059;59.850;10.454;2023-04-03T07:06:21;1.20;99.90
19799;DHT22;10059;59.850;10.454;2023-04-03T07:08:48;1.30;99.90
19799;DHT22;10059;59.850;10.454;2023-04-03T07:11:16;1.40;99.90
19799;DHT22;10059;59.850;10.454;2023-04-03T07:13:44;1.60;99.90
19799;DHT22;10059;59.850;10.454;2023-04-03T07:16:12;1.70;99.90
19799;DHT22;10059;59.850;10.454;2023-04-03T07:18:39;1.80;99.90
19799;DHT22;10059;59.850;10.454;2023-04-03T07:21:07;1.90;99.90
19799;DHT22;10059;59.850;10.454;2023-04-03T07:23:33;1.90;99.90
19799;DHT22;10059;59.850;10.454;2023-04-03T07:26:00;1.90;99.90
19799;DHT22;10059;59.850;10.454;2023-04-03T07:28:27;1.90;99.90
19799;DHT22;10059;59.850;10.454;2023-04-03T07:31:01;2.00;99.90
19799;DHT22;10059;59.850;10.454;2023-04-03T07:33:29;1.90;99.90
19799;DHT22;10059;59.850;10.454;2023-04-03T07:35:56;2.10;99.90
19799;DHT22;10059;59.850;10.454;2023-04-03T07:38:23;2.20;99.90
19799;DHT22;10059;59.850;10.454;2023-04-03T07:40:51;2.50;99.90
19799;DHT22;10059;59.850;10.454;2023-04-03T07:43:20;2.50;99.90
19799;DHT22;10059;59.850;10.454;2023-04-03T07:45:48;2.50;99.90
19799;DHT22;10059;59.850;10.454;2023-04-03T07:48:17;2.50;99.90
19799;DHT22;10059;59.850;10.454;2023-04-03T07:50:46;2.50;99.90
19799;DHT22;10059;59.850;10.454;2023-04-03T07:53:13;2.60;99.90
19799;DHT22;10059;59.850;10.454;2023-04-03T07:55:40;2.70;99.90
19799;DHT22;10059;59.850;10.454;2023-04-03T07:58:10;2.80;99.90
19799;DHT22;10059;59.850;10.454;2023-04-03T08:00:38;2.90;99.90
19799;DHT22;10059;59.850;10.454;2023-04-03T08:03:06;2.90;99.90
19799;DHT22;10059;59.850;10.454;2023-04-03T08:05:36;2.70;99.90
19799;DHT22;10059;59.850;10.454;2023-04-03T08:08:06;2.80;99.90
19799;DHT22;10059;59.850;10.454;2023-04-03T08:10:34;2.90;99.90
19799;DHT22;10059;59.850;10.454;2023-04-03T08:13:02;2.90;99.90
19799;DHT22;10059;59.850;10.454;2023-04-03T08:15:30;2.90;99.90
19799;DHT22;10059;59.850;10.454;2023-04-03T08:17:57;2.90;99.90
19799;DHT22;10059;59.850;10.454;2023-04-03T08:20:24;2.90;99.90
19799;DHT22;10059;59.850;10.454;2023-04-03T08:22:51;3.10;99.90
19799;DHT22;10059;59.850;10.454;2023-04-03T08:25:20;3.10;99.90
19799;DHT22;10059;59.850;10.454;2023-04-03T08:27:46;3.50;99.90
19799;DHT22;10059;59.850;10.454;2023-04-03T08:30:14;4.00;99.90
19799;DHT22;10059;59.850;10.454;2023-04-03T08:32:40;4.20;99.90
19799;DHT22;10059;59.850;10.454;2023-04-03T08:35:09;4.60;99.90
19799;DHT22;10059;59.850;10.454;2023-04-03T08:37:36;5.10;99.90
19799;DHT22;10059;59.850;10.454;2023-04-03T08:40:04;4.70;99.90
19799;DHT22;10059;59.850;10.454;2023-04-03T08:42:41;5.20;99.90
19799;DHT22;10059;59.850;10.454;2023-04-03T08:45:13;6.10;99.90
19799;DHT22;10059;59.850;10.454;2023-04-03T08:47:46;6.70;99.90
19799;DHT22;10059;59.850;10.454;2023-04-03T08:50:17;6.80;99.90
19799;DHT22;10059;59.850;10.454;2023-04-03T08:52:47;7.10;99.90
19799;DHT22;10059;59.850;10.454;2023-04-03T08:55:22;7.60;99.90
19799;DHT22;10059;59.850;10.454;2023-04-03T08:57:57;8.00;99.90
19799;DHT22;10059;59.850;10.454;2023-04-03T09:00:28;9.30;99.90
19799;DHT22;10059;59.850;10.454;2023-04-03T09:02:56;9.60;99.90
19799;DHT22;10059;59.850;10.454;2023-04-03T09:05:34;8.50;99.90
19799;DHT22;10059;59.850;10.454;2023-04-03T09:08:06;8.80;99.90
19799;DHT22;10059;59.850;10.454;2023-04-03T09:10:37;10.00;99.90
19799;DHT22;10059;59.850;10.454;2023-04-03T09:13:11;11.20;99.90
19799;DHT22;10059;59.850;10.454;2023-04-03T09:15:40;10.20;99.90
19799;DHT22;10059;59.850;10.454;2023-04-03T09:18:13;9.70;99.90
19799;DHT22;10059;59.850;10.454;2023-04-03T09:20:46;9.80;99.90
19799;DHT22;10059;59.850;10.454;2023-04-03T09:23:22;9.20;99.90
19799;DHT22;10059;59.850;10.454;2023-04-03T09:25:54;9.00;99.90
19799;DHT22;10059;59.850;10.454;2023-04-03T09:28:24;8.70;99.90
19799;DHT22;10059;59.850;10.454;2023-04-03T09:30:51;9.20;99.90
19799;DHT22;10059;59.850;10.454;2023-04-03T09:33:18;10.10;99.90
19799;DHT22;10059;59.850;10.454;2023-04-03T09:35:47;10.00;99.90
19799;DHT22;10059;59.850;10.454;2023-04-03T09:38:18;10.00;99.90
19799;DHT22;10059;59.850;10.454;2023-04-03T09:40:46;9.30;99.90
19799;DHT22;10059;59.850;10.454;2023-04-03T09:43:27;9.90;99.90
19799;DHT22;10059;59.850;10.454;2023-04-03T09:45:56;9.30;99.90
19799;DHT22;10059;59.850;10.454;2023-04-03T09:48:24;8.80;99.90
19799;DHT22;10059;59.850;10.454;2023-04-03T09:50:59;9.40;99.90
19799;DHT22;10059;59.850;10.454;2023-04-03T09:53:30;9.50;99.90
19799;DHT22;10059;59.850;10.454;2023-04-03T09:55:58;9.00;99.90
19799;DHT22;10059;59.850;10.454;2023-04-03T09:58:29;9.70;99.90
19799;DHT22;10059;59.850;10.454;2023-04-03T10:01:00;9.90;99.90
19799;DHT22;10059;59.850;10.454;2023-04-03T10:03:30;10.20;99.90
19799;DHT22;10059;59.850;10.454;2023-04-03T10:05:58;9.60;99.90
19799;DHT22;10059;59.850;10.454;2023-04-03T10:08:28;9.90;99.90
19799;DHT22;10059;59.850;10.454;2023-04-03T10:11:11;9.40;99.90
19799;DHT22;10059;59.850;10.454;2023-04-03T10:13:56;9.80;99.90
19799;DHT22;10059;59.850;10.454;2023-04-03T10:16:28;10.20;99.90
19799;DHT22;10059;59.850;10.454;2023-04-03T10:19:05;10.10;99.90
19799;DHT22;10059;59.850;10.454;2023-04-03T10:21:41;9.60;99.90
19799;DHT22;10059;59.850;10.454;2023-04-03T10:24:14;10.20;99.90
19799;DHT22;10059;59.850;10.454;2023-04-03T10:26:52;10.40;99.90
19799;DHT22;10059;59.850;10.454;2023-04-03T10:29:31;10.40;99.90
19799;DHT22;10059;59.850;10.454;2023-04-03T10:32:07;10.90;99.90
19799;DHT22;10059;59.850;10.454;2023-04-03T10:34:40;10.90;99.90
19799;DHT22;10059;59.850;10.454;2023-04-03T10:37:13;10.80;99.90
19799;DHT22;10059;59.850;10.454;2023-04-03T10:39:51;10.30;99.90
19799;DHT22;10059;59.850;10.454;2023-04-03T10:42:26;10.40;99.90
19799;DHT22;10059;59.850;10.454;2023-04-03T10:45:15;10.80;99.90
19799;DHT22;10059;59.850;10.454;2023-04-03T10:47:53;10.80;99.90
19799;DHT22;10059;59.850;10.454;2023-04-03T10:50:40;11.40;99.90
19799;DHT22;10059;59.850;10.454;2023-04-03T10:53:17;11.10;99.90
19799;DHT22;10059;59.850;10.454;2023-04-03T10:55:53;10.70;99.90
19799;DHT22;10059;59.850;10.454;2023-04-03T10:58:28;10.80;99.90
19799;DHT22;10059;59.850;10.454;2023-04-03T11:01:01;10.70;99.90
19799;DHT22;10059;59.850;10.454;2023-04-03T11:03:34;10.00;99.90
19799;DHT22;10059;59.850;10.454;2023-04-03T11:06:04;10.00;99.90
19799;DHT22;10059;59.850;10.454;2023-04-03T11:08:36;9.90;99.90
19799;DHT22;10059;59.850;10.454;2023-04-03T11:11:08;9.80;99.90
19799;DHT22;10059;59.850;10.454;2023-04-03T11:13:39;10.00;99.90
19799;DHT22;10059;59.850;10.454;2023-04-03T11:16:15;10.20;99.90
19799;DHT22;10059;59.850;10.454;2023-04-03T11:18:48;10.10;99.90
19799;DHT22;10059;59.850;10.454;2023-04-03T11:21:20;10.30;99.90
19799;DHT22;10059;59.850;10.454;2023-04-03T11:23:49;10.60;99.90
19799;DHT22;10059;59.850;10.454;2023-04-03T11:26:21;10.90;99.90
19799;DHT22;10059;59.850;10.454;2023-04-03T11:28:53;10.20;99.90
19799;DHT22;10059;59.850;10.454;2023-04-03T11:31:35;11.00;99.90
19799;DHT22;10059;59.850;10.454;2023-04-03T11:34:13;11.30;99.90
19799;DHT22;10059;59.850;10.454;2023-04-03T11:36:46;10.50;99.90
19799;DHT22;10059;59.850;10.454;2023-04-03T11:39:21;10.30;99.90
19799;DHT22;10059;59.850;10.454;2023-04-03T11:41:49;10.00;99.90
19799;DHT22;10059;59.850;10.454;2023-04-03T11:44:31;9.80;99.90
19799;DHT22;10059;59.850;10.454;2023-04-03T11:47:01;10.20;99.90
19799;DHT22;10059;59.850;10.454;2023-04-03T11:49:57;10.30;99.90
19799;DHT22;10059;59.850;10.454;2023-04-03T11:52:59;11.00;99.90
19799;DHT22;10059;59.850;10.454;2023-04-03T11:55:46;10.30;99.90
19799;DHT22;10059;59.850;10.454;2023-04-03T11:58:19;10.30;99.90
19799;DHT22;10059;59.850;10.454;2023-04-03T12:01:08;10.50;99.90
19799;DHT22;10059;59.850;10.454;2023-04-03T12:04:04;10.70;99.90
19799;DHT22;10059;59.850;10.454;2023-04-03T12:10:18;11.30;99.90
19799;DHT22;10059;59.850;10.454;2023-04-03T12:12:58;10.20;99.90
19799;DHT22;10059;59.850;10.454;2023-04-03T12:15:52;10.90;99.90
19799;DHT22;10059;59.850;10.454;2023-04-03T12:19:00;11.70;99.90
19799;DHT22;10059;59.850;10.454;2023-04-03T12:22:18;11.60;99.90
19799;DHT22;10059;59.850;10.454;2023-04-03T12:24:47;11.40;99.90
19799;DHT22;10059;59.850;10.454;2023-04-03T12:27:23;12.10;99.90
19799;DHT22;10059;59.850;10.454;2023-04-03T12:29:55;11.70;99.90
19799;DHT22;10059;59.850;10.454;2023-04-03T12:32:43;11.30;99.90
19799;DHT22;10059;59.850;10.454;2023-04-03T12:35:21;11.50;99.90
19799;DHT22;10059;59.850;10.454;2023-04-03T12:38:26;10.70;99.90
19799;DHT22;10059;59.850;10.454;2023-04-03T12:41:11;10.50;99.90
19799;DHT22;10059;59.850;10.454;2023-04-03T12:43:49;10.90;99.90
19799;DHT22;10059;59.850;10.454;2023-04-03T12:46:19;10.60;99.90
19799;DHT22;10059;59.850;10.454;2023-04-03T12:48:49;11.00;99.90
19799;DHT22;10059;59.850;10.454;2023-04-03T12:51:19;10.70;99.90
19799;DHT22;10059;59.850;10.454;2023-04-03T12:53:49;11.20;99.90
19799;DHT22;10059;59.850;10.454;2023-04-03T12:56:21;10.40;99.90
19799;DHT22;10059;59.850;10.454;2023-04-03T12:58:49;10.70;99.90
19799;DHT22;10059;59.850;10.454;2023-04-03T13:01:18;10.70;99.90
19799;DHT22;10059;59.850;10.454;2023-04-03T13:03:50;10.70;99.90
19799;DHT22;10059;59.850;10.454;2023-04-03T13:06:22;10.10;99.90
19799;DHT22;10059;59.850;10.454;2023-04-03T13:08:51;10.00;99.90
19799;DHT22;10059;59.850;10.454;2023-04-03T13:11:19;10.10;99.90
19799;DHT22;10059;59.850;10.454;2023-04-03T13:13:58;10.10;99.90
19799;DHT22;10059;59.850;10.454;2023-04-03T13:16:25;9.80;99.90
19799;DHT22;10059;59.850;10.454;2023-04-03T13:18:53;9.80;99.90
19799;DHT22;10059;59.850;10.454;2023-04-03T13:21:25;9.50;99.90
19799;DHT22;10059;59.850;10.454;2023-04-03T13:23:55;9.60;99.90
19799;DHT22;10059;59.850;10.454;2023-04-03T13:26:24;9.60;99.90
19799;DHT22;10059;59.850;10.454;2023-04-03T13:28:54;9.60;99.90
19799;DHT22;10059;59.850;10.454;2023-04-03T13:31:26;10.10;99.90
19799;DHT22;10059;59.850;10.454;2023-04-03T13:33:57;9.90;99.90
19799;DHT22;10059;59.850;10.454;2023-04-03T13:36:29;9.80;99.90
19799;DHT22;10059;59.850;10.454;2023-04-03T13:39:02;9.50;99.90
19799;DHT22;10059;59.850;10.454;2023-04-03T13:41:31;9.80;99.90
19799;DHT22;10059;59.850;10.454;2023-04-03T13:46:59;10.30;99.90
19799;DHT22;10059;59.850;10.454;2023-04-03T13:49:31;9.90;99.90
19799;DHT22;10059;59.850;10.454;2023-04-03T13:52:00;10.00;99.90
19799;DHT22;10059;59.850;10.454;2023-04-03T13:54:31;10.30;99.90
19799;DHT22;10059;59.850;10.454;2023-04-03T13:56:59;10.40;99.90
19799;DHT22;10059;59.850;10.454;2023-04-03T13:59:29;9.70;99.90
19799;DHT22;10059;59.850;10.454;2023-04-03T14:02:13;10.30;99.90
19799;DHT22;10059;59.850;10.454;2023-04-03T14:04:55;10.30;99.90
19799;DHT22;10059;59.850;10.454;2023-04-03T14:07:27;9.90;99.90
19799;DHT22;10059;59.850;10.454;2023-04-03T14:09:55;10.00;99.90
19799;DHT22;10059;59.850;10.454;2023-04-03T14:12:26;10.20;99.90
19799;DHT22;10059;59.850;10.454;2023-04-03T14:14:54;9.70;99.90
19799;DHT22;10059;59.850;10.454;2023-04-03T14:17:23;10.00;99.90
19799;DHT22;10059;59.850;10.454;2023-04-03T14:19:52;9.80;99.90
19799;DHT22;10059;59.850;10.454;2023-04-03T14:22:22;9.50;99.90
19799;DHT22;10059;59.850;10.454;2023-04-03T14:24:51;9.70;99.90
19799;DHT22;10059;59.850;10.454;2023-04-03T14:27:20;9.90;99.90
19799;DHT22;10059;59.850;10.454;2023-04-03T14:29:49;10.00;99.90
19799;DHT22;10059;59.850;10.454;2023-04-03T14:32:17;10.20;99.90
19799;DHT22;10059;59.850;10.454;2023-04-03T14:34:45;10.00;99.90
19799;DHT22;10059;59.850;10.454;2023-04-03T14:37:15;10.00;99.90
19799;DHT22;10059;59.850;10.454;2023-04-03T14:39:43;9.60;99.90
19799;DHT22;10059;59.850;10.454;2023-04-03T14:42:16;9.60;99.90
19799;DHT22;10059;59.850;10.454;2023-04-03T14:44:43;9.30;99.90
19799;DHT22;10059;59.850;10.454;2023-04-03T14:47:12;9.20;99.90
19799;DHT22;10059;59.850;10.454;2023-04-03T14:49:40;9.00;99.90
19799;DHT22;10059;59.850;10.454;2023-04-03T14:52:17;9.20;99.90
19799;DHT22;10059;59.850;10.454;2023-04-03T14:54:45;9.30;99.90
19799;DHT22;10059;59.850;10.454;2023-04-03T14:57:15;8.90;99.90
19799;DHT22;10059;59.850;10.454;2023-04-03T14:59:42;9.30;99.90
19799;DHT22;10059;59.850;10.454;2023-04-03T15:02:25;8.80;99.90
19799;DHT22;10059;59.850;10.454;2023-04-03T15:04:52;8.80;99.90
19799;DHT22;10059;59.850;10.454;2023-04-03T15:07:19;8.60;99.90
19799;DHT22;10059;59.850;10.454;2023-04-03T15:09:46;8.50;99.90
19799;DHT22;10059;59.850;10.454;2023-04-03T15:12:14;8.60;99.90
19799;DHT22;10059;59.850;10.454;2023-04-03T15:14:41;8.50;99.90
19799;DHT22;10059;59.850;10.454;2023-04-03T15:17:14;8.30;99.90
19799;DHT22;10059;59.850;10.454;2023-04-03T15:19:42;8.40;99.90
19799;DHT22;10059;59.850;10.454;2023-04-03T15:22:13;8.40;99.90
19799;DHT22;10059;59.850;10.454;2023-04-03T15:24:40;8.40;99.90
19799;DHT22;10059;59.850;10.454;2023-04-03T15:27:07;8.10;99.90
19799;DHT22;10059;59.850;10.454;2023-04-03T15:29:36;8.00;99.90
19799;DHT22;10059;59.850;10.454;2023-04-03T15:32:03;8.30;99.90
19799;DHT22;10059;59.850;10.454;2023-04-03T15:34:30;8.30;99.90
19799;DHT22;10059;59.850;10.454;2023-04-03T15:36:57;8.30;99.90
19799;DHT22;10059;59.850;10.454;2023-04-03T15:39:25;8.30;99.90
19799;DHT22;10059;59.850;10.454;2023-04-03T15:41:52;8.30;99.90
19799;DHT22;10059;59.850;10.454;2023-04-03T15:44:20;8.30;99.90
19799;DHT22;10059;59.850;10.454;2023-04-03T15:46:49;8.60;99.90
19799;DHT22;10059;59.850;10.454;2023-04-03T15:49:17;8.60;99.90